Time;durP1;ratioP1;P1;durP2;ratioP2;P2;SDS_P1;SDS_P2;PMS_P1;PMS_P2;Temp;Humidity;BMP_temperature;BMP_pressure;BME280_temperature;BME280_humidity;BME280_pressure;Samples;Min_cycle;Max_cycle;Signal;HPM_P1;HPM_P2
2021/12/17 00:07:24;;;;;;;9.15;6.43;;;;;;;21.94;44.18;95609.75;5066175;28;20047;-55
2021/12/17 00:09:50;;;;;;;9.13;6.70;;;;;;;22.07;44.18;95629.09;5066039;28;20086;-53
2021/12/17 00:12:17;;;;;;;8.32;6.30;;;;;;;21.99;44.09;95628.06;5066029;28;20830;-54
2021/12/17 00:14:45;;;;;;;9.13;6.68;;;;;;;22.01;43.95;95628.31;5065984;28;20024;-53
2021/12/17 00:17:13;;;;;;;8.45;6.10;;;;;;;22.00;43.99;95629.56;5065694;28;20033;-54
2021/12/17 00:20:04;;;;;;;8.65;6.40;;;;;;;21.97;44.15;95641.41;5065962;28;20715;-53
2021/12/17 00:49:46;;;;;;;9.20;6.40;;;;;;;21.79;44.41;95629.41;5065320;28;20039;-53
2021/12/17 00:52:12;;;;;;;9.30;6.95;;;;;;;21.78;44.24;95622.47;5065176;28;20070;-52
2021/12/17 00:54:40;;;;;;;7.65;5.88;;;;;;;21.74;43.92;95627.41;5065275;28;20113;-52
2021/12/17 00:57:11;;;;;;;7.50;5.93;;;;;;;21.76;44.18;95630.38;5063834;28;20051;-53
2021/12/17 00:59:36;;;;;;;7.90;6.25;;;;;;;21.74;44.00;95621.97;5065050;28;20567;-53
2021/12/17 01:02:04;;;;;;;7.97;6.07;;;;;;;21.73;44.27;95620.47;5065084;28;20024;-53
2021/12/17 01:04:30;;;;;;;9.43;6.82;;;;;;;21.69;44.05;95614.53;5064958;28;20082;-53
2021/12/17 01:06:55;;;;;;;8.20;6.30;;;;;;;21.72;44.08;95624.41;5064953;28;20426;-53
2021/12/17 01:09:22;;;;;;;9.02;6.28;;;;;;;21.70;44.05;95626.88;5064810;28;20135;-54
2021/12/17 01:11:47;;;;;;;7.72;6.00;;;;;;;21.71;44.05;95617.50;5064864;28;20032;-53
2021/12/17 01:14:13;;;;;;;9.00;6.22;;;;;;;21.69;44.23;95609.09;5064792;28;20406;-53
2021/12/17 01:16:38;;;;;;;8.00;6.68;;;;;;;21.67;44.01;95611.53;5064805;28;20035;-53
2021/12/17 01:19:27;;;;;;;7.80;6.15;;;;;;;21.66;44.17;95610.06;5064663;28;20509;-54
2021/12/17 01:22:13;;;;;;;8.43;5.65;;;;;;;21.65;43.95;95609.28;5064033;28;20048;-55
2021/12/17 01:24:45;;;;;;;8.52;5.88;;;;;;;21.65;44.19;95608.56;5064410;28;20096;-55
2021/12/17 01:35:26;;;;;;;7.72;6.07;;;;;;;21.61;43.77;95586.28;5057771;28;20051;-53
2021/12/17 01:43:09;;;;;;;6.85;5.43;;;;;;;21.58;44.08;95581.81;5063810;28;20071;-53
2021/12/17 01:45:38;;;;;;;7.47;6.03;;;;;;;21.56;44.12;95579.59;5064442;28;20825;-53
2021/12/17 01:48:07;;;;;;;8.00;6.20;;;;;;;21.56;44.19;95573.41;5059157;28;20511;-52
2021/12/17 01:56:17;;;;;;;7.68;5.72;;;;;;;21.53;44.01;95568.94;5064632;28;20075;-54
2021/12/17 02:01:27;;;;;;;7.32;5.45;;;;;;;21.52;44.13;95575.59;5063953;28;20058;-53
2021/12/17 02:03:53;;;;;;;7.95;5.63;;;;;;;21.53;43.99;95580.56;5064119;28;20024;-54
2021/12/17 02:06:20;;;;;;;7.82;5.80;;;;;;;21.51;43.83;95583.00;5063907;28;20036;-53
2021/12/17 02:08:47;;;;;;;7.15;5.82;;;;;;;21.51;44.05;95587.72;5063685;28;20414;-53
2021/12/17 02:32:26;;;;;;;6.28;5.07;;;;;;;21.44;43.88;95571.81;5063977;28;20043;-55
2021/12/17 02:37:23;;;;;;;7.22;5.55;;;;;;;21.41;44.09;95567.34;5068055;28;20740;-54
2021/12/17 02:40:13;;;;;;;6.43;5.15;;;;;;;21.43;43.90;95571.06;5050177;28;20417;-53
2021/12/17 02:45:36;;;;;;;6.82;5.10;;;;;;;21.40;43.96;95565.09;5067604;28;20532;-54
2021/12/17 02:48:07;;;;;;;7.20;5.30;;;;;;;21.35;44.01;95554.94;5067237;28;20037;-55
2021/12/17 02:50:40;;;;;;;6.50;5.20;;;;;;;21.39;43.92;95563.59;5067315;28;20036;-53
2021/12/17 02:53:07;;;;;;;6.28;4.72;;;;;;;21.36;43.79;95559.91;5066508;28;20078;-54
2021/12/17 02:55:34;;;;;;;7.07;5.20;;;;;;;21.37;43.95;95566.81;5066055;28;20029;-54
2021/12/17 02:58:00;;;;;;;6.47;4.93;;;;;;;21.37;43.79;95566.81;5067468;28;20112;-53
2021/12/17 03:00:25;;;;;;;6.85;5.18;;;;;;;21.36;43.77;95570.78;5065737;28;20020;-53
2021/12/17 03:02:51;;;;;;;5.97;4.88;;;;;;;21.38;43.77;95564.84;5066147;28;20080;-53
2021/12/17 03:05:16;;;;;;;5.90;4.55;;;;;;;21.37;43.99;95577.69;5067403;28;20593;-53
2021/12/17 03:07:45;;;;;;;5.40;4.50;;;;;;;21.33;43.88;95571.72;5065915;28;20035;-54
2021/12/17 03:10:12;;;;;;;7.05;5.32;;;;;;;21.35;43.84;95574.69;5065989;28;20036;-53
2021/12/17 03:12:47;;;;;;;6.40;4.90;;;;;;;21.34;43.78;95573.19;5067119;28;20064;-53
2021/12/17 03:26:00;;;;;;;5.70;4.47;;;;;;;21.31;43.79;95571.44;5066668;28;20043;-53
2021/12/17 03:28:26;;;;;;;6.40;4.65;;;;;;;21.30;43.81;95561.84;5066037;28;20051;-53
2021/12/17 03:30:52;;;;;;;5.97;4.80;;;;;;;21.29;43.82;95565.03;5065602;28;20048;-53
2021/12/17 03:33:17;;;;;;;5.65;4.45;;;;;;;21.29;43.74;95565.75;5061946;28;20036;-54
2021/12/17 03:35:42;;;;;;;5.85;4.50;;;;;;;21.26;43.72;95566.72;5054904;28;20041;-54
2021/12/17 03:38:08;;;;;;;6.72;4.93;;;;;;;21.26;43.43;95571.44;5066574;28;20039;-53
2021/12/17 03:40:33;;;;;;;5.60;4.43;;;;;;;21.27;43.73;95562.78;5067265;28;20123;-53
2021/12/17 03:43:10;;;;;;;6.65;4.63;;;;;;;21.27;43.85;95557.38;5068410;28;20418;-55
2021/12/17 03:45:36;;;;;;;6.05;4.53;;;;;;;21.25;43.62;95548.94;5067868;28;20032;-53
2021/12/17 03:48:01;;;;;;;5.57;4.30;;;;;;;21.27;43.82;95551.94;5066465;28;20029;-53
2021/12/17 03:50:27;;;;;;;6.43;4.63;;;;;;;21.26;43.85;95550.44;5067021;28;20486;-54
2021/12/17 03:52:52;;;;;;;5.45;4.05;;;;;;;21.26;43.81;95550.44;5066176;28;20586;-55
2021/12/17 03:55:18;;;;;;;6.38;4.70;;;;;;;21.25;43.71;95548.94;5066564;28;20035;-52
2021/12/17 03:57:43;;;;;;;6.15;4.50;;;;;;;21.24;43.83;95547.47;5066584;28;20027;-53
2021/12/17 04:00:09;;;;;;;5.72;4.13;;;;;;;21.19;43.60;95533.81;5066424;28;20594;-53
2021/12/17 04:02:35;;;;;;;6.07;4.35;;;;;;;21.24;43.62;95535.84;5066494;28;20028;-52
2021/12/17 04:05:01;;;;;;;6.45;4.45;;;;;;;21.24;43.73;95536.59;5066177;28;20017;-53
2021/12/17 04:07:26;;;;;;;5.25;3.97;;;;;;;21.23;43.55;95529.66;5066754;28;20469;-53
2021/12/17 04:09:52;;;;;;;5.28;4.10;;;;;;;;;;5068364;28;20020;-53
2021/12/17 04:12:20;;;;;;;5.72;4.45;;;;;;;21.22;43.50;95522.72;5069576;28;20078;-56
2021/12/17 04:14:48;;;;;;;5.22;4.15;;;;;;;21.21;43.59;95526.69;5069830;28;20036;-57
2021/12/17 04:17:20;;;;;;;5.47;4.00;;;;;;;21.19;43.66;95518.28;5069819;28;20086;-61
2021/12/17 04:19:45;;;;;;;6.15;4.10;;;;;;;21.20;43.61;95514.34;5066339;28;20438;-54
2021/12/17 04:22:11;;;;;;;5.55;4.20;;;;;;;21.20;43.48;95514.34;5066318;28;20028;-53
2021/12/17 04:24:36;;;;;;;5.30;3.92;;;;;;;21.20;43.45;95508.91;5066567;28;20605;-53
2021/12/17 04:27:02;;;;;;;5.22;4.00;;;;;;;21.19;43.44;95496.53;5065885;28;20040;-55
2021/12/17 04:29:27;;;;;;;5.55;4.20;;;;;;;21.15;43.56;95490.59;5081236;28;20198;-53
2021/12/17 04:31:55;;;;;;;5.38;3.78;;;;;;;21.17;43.57;95493.56;5065715;28;20029;-54
2021/12/17 04:34:21;;;;;;;5.03;4.20;;;;;;;21.12;43.45;95479.94;5065598;28;20119;-54
2021/12/17 04:36:49;;;;;;;5.32;4.15;;;;;;;21.17;43.67;95482.72;5065105;28;20111;-54
2021/12/17 04:39:17;;;;;;;5.03;3.97;;;;;;;21.17;43.52;95488.16;5065853;28;20047;-54
2021/12/17 04:44:17;;;;;;;5.50;4.03;;;;;;;21.13;43.33;95476.75;5065893;28;20032;-56
2021/12/17 04:59:45;;;;;;;4.95;3.53;;;;;;;21.30;43.17;95464.03;5057187;28;20033;-53
2021/12/17 05:02:10;;;;;;;4.38;3.30;;;;;;;21.40;43.13;95468.03;5045415;28;20021;-54
2021/12/17 05:04:37;;;;;;;4.38;3.80;;;;;;;21.47;43.08;95483.94;5044373;28;20025;-52
2021/12/17 05:07:03;;;;;;;5.32;3.50;;;;;;;21.50;43.02;95488.41;5060897;28;20038;-55
2021/12/17 05:09:37;;;;;;;4.43;3.28;;;;;;;21.54;42.99;95478.06;5049972;28;20020;-53
2021/12/17 05:20:25;;;;;;;4.47;3.42;;;;;;;21.64;42.72;95474.66;5051030;28;20043;-55
2021/12/17 05:22:56;;;;;;;4.10;3.00;;;;;;;21.66;42.84;95474.16;5056653;28;20031;-52
2021/12/17 05:25:22;;;;;;;4.43;3.28;;;;;;;21.68;42.73;95474.41;5048222;28;20291;-55
2021/12/17 05:27:47;;;;;;;3.78;2.97;;;;;;;21.70;42.81;95490.97;5053125;28;20503;-54
2021/12/17 05:30:12;;;;;;;4.13;2.80;;;;;;;21.70;42.63;95480.88;5056127;28;20024;-52
2021/12/17 05:32:38;;;;;;;4.15;3.17;;;;;;;21.72;42.62;95489.25;5063579;28;20059;-52
2021/12/17 05:35:04;;;;;;;3.90;2.97;;;;;;;21.74;42.53;95480.63;5046219;28;20087;-53
2021/12/17 05:37:29;;;;;;;4.03;2.88;;;;;;;21.76;42.51;95472.72;5051105;28;20024;-54
2021/12/17 05:39:55;;;;;;;4.15;3.20;;;;;;;21.80;42.44;95473.25;5058194;28;20498;-55
2021/12/17 05:42:20;;;;;;;4.50;3.08;;;;;;;21.81;42.37;95472.00;5056686;28;20442;-55
2021/12/17 05:44:51;;;;;;;3.80;2.88;;;;;;;21.85;42.28;95469.78;5051007;28;20412;-57
2021/12/17 05:47:17;;;;;;;4.88;2.90;;;;;;;21.88;42.33;95468.81;5053304;28;20465;-53
2021/12/17 05:49:42;;;;;;;4.07;3.10;;;;;;;21.91;42.17;95467.84;5051121;28;20032;-54
2021/12/17 05:52:07;;;;;;;3.97;3.08;;;;;;;21.92;42.15;95461.19;5050634;28;20045;-52
2021/12/17 05:54:33;;;;;;;4.82;2.95;;;;;;;21.92;42.14;95465.38;5058280;28;20035;-52
2021/12/17 05:56:58;;;;;;;4.80;3.13;;;;;;;21.95;41.94;95464.41;5043930;28;20130;-54
2021/12/17 05:59:32;;;;;;;4.38;2.97;;;;;;;21.96;41.96;95471.31;5049056;28;20526;-54
2021/12/17 06:01:57;;;;;;;3.75;2.95;;;;;;;21.99;42.05;95481.22;5052706;28;20565;-52
2021/12/17 06:04:22;;;;;;;6.20;5.38;;;;;;;21.99;42.00;95486.66;5064113;28;20036;-54
2021/12/17 06:06:49;;;;;;;9.13;5.65;;;;;;;22.02;42.65;95496.56;5063804;28;20032;-52
2021/12/17 06:09:14;;;;;;;9.48;7.00;;;;;;;22.05;42.83;95495.59;5065547;28;20044;-53
2021/12/17 06:11:40;;;;;;;9.75;8.07;;;;;;;22.05;42.93;95487.44;5067932;28;20146;-56
2021/12/17 06:14:06;;;;;;;12.27;8.30;;;;;;;22.12;42.96;95489.69;5068305;28;20064;-52
2021/12/17 06:16:33;;;;;;;13.63;9.68;;;;;;;22.15;43.15;95498.84;5068174;28;20082;-57
2021/12/17 06:19:01;;;;;;;14.95;10.60;;;;;;;22.21;43.30;95494.94;5067822;28;20090;-56
2021/12/17 06:21:27;;;;;;;19.20;12.25;;;;;;;22.31;43.37;95506.34;5067444;28;20016;-56
2021/12/17 06:23:52;;;;;;;18.77;13.15;;;;;;;22.40;43.42;95498.69;5060364;28;20086;-54
2021/12/17 06:26:18;;;;;;;22.45;14.15;;;;;;;22.51;43.32;95510.38;5060157;28;20028;-54
2021/12/17 06:28:43;;;;;;;22.13;15.75;;;;;;;22.62;43.75;95499.50;5057188;28;20482;-55
2021/12/17 06:31:09;;;;;;;25.55;17.70;;;;;;;22.73;43.58;95498.78;5065327;28;20625;-54
2021/12/17 06:33:34;;;;;;;24.90;18.42;;;;;;;22.87;43.05;95503.25;5067699;28;20490;-53
2021/12/17 06:35:59;;;;;;;26.02;17.95;;;;;;;22.95;42.97;95505.00;5067881;28;20028;-53
2021/12/17 06:38:25;;;;;;;25.08;17.23;;;;;;;23.06;42.91;95483.22;5067825;28;20025;-53
2021/12/17 06:40:53;;;;;;;22.05;15.50;;;;;;;23.14;42.56;95487.69;5067467;28;20025;-52
2021/12/17 06:43:22;;;;;;;21.15;15.77;;;;;;;23.28;42.01;95499.56;5051926;28;20058;-57
2021/12/17 06:48:20;;;;;;;16.50;12.73;;;;;;;23.58;41.53;95490.34;5055243;28;20072;-53
2021/12/17 06:59:01;;;;;;;15.25;11.82;;;;;;;23.97;40.16;95494.50;5048533;28;20488;-52
2021/12/17 07:17:19;;;;;;;11.60;7.45;;;;;;;24.60;38.76;95501.41;5051038;28;20497;-56
2021/12/17 07:23:02;;;;;;;11.00;7.68;;;;;;;24.74;38.83;95501.09;5063372;28;20593;-55
2021/12/17 07:28:34;;;;;;;9.85;7.03;;;;;;;24.85;38.42;95501.75;5062458;28;20090;-52
2021/12/17 07:33:44;;;;;;;10.40;6.15;;;;;;;24.97;38.04;95491.50;5053584;28;20036;-52
2021/12/17 07:36:14;;;;;;;6.80;5.57;;;;;;;25.03;38.16;95484.75;5054118;28;20036;-53
2021/12/17 07:38:43;;;;;;;8.85;5.35;;;;;;;25.07;37.57;95484.50;5060614;28;20047;-53
2021/12/17 07:41:09;;;;;;;8.47;5.63;;;;;;;25.11;38.24;95474.78;5063767;28;20221;-57
2021/12/17 07:43:38;;;;;;;8.23;5.40;;;;;;;25.13;37.79;95472.25;5061448;28;20021;-55
2021/12/17 07:46:06;;;;;;;8.63;5.20;;;;;;;25.18;37.47;95484.41;5055825;28;20040;-53
2021/12/17 07:48:31;;;;;;;6.72;4.75;;;;;;;25.22;37.19;95485.59;5059150;28;20514;-52
2021/12/17 07:50:58;;;;;;;6.97;5.10;;;;;;;25.23;37.45;95481.63;5061056;28;20115;-52
2021/12/17 07:53:23;;;;;;;6.70;4.35;;;;;;;25.25;36.89;95479.13;5054438;28;20031;-51
2021/12/17 07:55:49;;;;;;;6.28;4.30;;;;;;;25.31;37.16;95488.75;5046712;28;20021;-52
2021/12/17 07:58:14;;;;;;;7.05;4.88;;;;;;;25.36;36.97;95490.69;5057184;28;20552;-53
2021/12/17 08:00:40;;;;;;;5.93;4.25;;;;;;;25.37;36.91;95480.50;5054513;28;20031;-54
2021/12/17 08:03:05;;;;;;;6.88;4.57;;;;;;;25.38;36.82;95492.91;5063002;28;20107;-54
2021/12/17 08:05:31;;;;;;;5.43;4.50;;;;;;;25.38;36.73;95492.91;5048573;28;20033;-53
2021/12/17 08:07:56;;;;;;;6.50;4.00;;;;;;;25.40;36.88;95495.88;5045505;28;20029;-52
2021/12/17 08:10:21;;;;;;;6.38;4.10;;;;;;;25.46;36.75;95502.06;5047780;28;20415;-54
2021/12/17 08:12:47;;;;;;;5.82;4.18;;;;;;;25.49;36.63;95509.22;5045725;28;20102;-56
2021/12/17 08:15:13;;;;;;;6.47;3.63;;;;;;;25.48;36.72;95491.34;5080860;28;20041;-56
2021/12/17 08:28:23;;;;;;;5.70;3.60;;;;;;;25.53;36.40;95474.13;5048067;28;20047;-56
2021/12/17 08:30:50;;;;;;;4.60;3.42;;;;;;;25.55;36.64;95472.38;5049541;28;20029;-55
2021/12/17 08:33:20;;;;;;;4.53;3.45;;;;;;;25.51;36.62;95465.69;5046379;28;20097;-52
2021/12/17 08:35:45;;;;;;;5.72;3.70;;;;;;;25.53;36.38;95479.59;5058093;28;20048;-57
2021/12/17 08:38:11;;;;;;;5.15;3.65;;;;;;;25.53;36.07;95482.31;5045781;28;20479;-52
2021/12/17 08:40:36;;;;;;;4.68;3.10;;;;;;;25.56;36.29;95470.34;5045766;28;20029;-53
2021/12/17 08:43:02;;;;;;;4.25;3.00;;;;;;;25.63;36.16;95470.53;5057972;28;20035;-52
2021/12/17 08:45:28;;;;;;;6.05;3.67;;;;;;;25.67;36.01;95473.03;5046644;28;20037;-56
2021/12/17 08:47:53;;;;;;;3.85;2.80;;;;;;;25.69;35.91;95456.84;5046081;28;20029;-53
2021/12/17 08:50:19;;;;;;;4.65;3.15;;;;;;;25.74;36.00;95458.75;5045685;28;20028;-52
2021/12/17 08:52:45;;;;;;;4.78;3.03;;;;;;;25.76;35.94;95450.81;5059036;28;20190;-54
2021/12/17 08:55:10;;;;;;;4.47;2.80;;;;;;;25.78;36.08;95457.22;5050395;28;20024;-57
2021/12/17 08:57:36;;;;;;;4.38;2.75;;;;;;;25.81;35.99;95459.69;5047490;28;20116;-55
2021/12/17 09:00:06;;;;;;;4.57;2.90;;;;;;;25.80;35.87;95452.72;5061488;28;20028;-58
2021/12/17 09:02:33;;;;;;;5.07;2.80;;;;;;;25.83;36.30;95462.66;5055796;28;20032;-55
2021/12/17 09:04:59;;;;;;;4.60;3.08;;;;;;;25.76;35.84;95453.53;5048104;28;20041;-60
2021/12/17 09:07:24;;;;;;;3.85;2.58;;;;;;;25.79;36.04;95456.72;5047713;28;20025;-56
2021/12/17 09:09:50;;;;;;;5.53;2.40;;;;;;;25.79;35.97;95449.78;5045517;28;20556;-56
2021/12/17 09:12:16;;;;;;;3.38;2.50;;;;;;;25.80;35.97;95450.00;5052455;28;20038;-55
2021/12/17 09:14:41;;;;;;;4.65;3.00;;;;;;;25.80;35.93;95447.25;5060217;28;20423;-54
2021/12/17 09:17:07;;;;;;;3.70;2.85;;;;;;;25.79;36.01;95451.25;5064051;28;20036;-53
2021/12/17 09:19:33;;;;;;;4.47;2.67;;;;;;;25.78;36.00;95431.88;5046019;28;20032;-55
2021/12/17 09:21:59;;;;;;;3.63;2.25;;;;;;;25.83;35.76;95432.53;5046856;28;20033;-54
2021/12/17 09:24:24;;;;;;;3.75;2.63;;;;;;;25.86;35.61;95437.00;5049954;28;20071;-53
2021/12/17 09:26:49;;;;;;;3.67;2.50;;;;;;;25.88;35.80;95426.25;5048183;28;20033;-54
2021/12/17 09:29:15;;;;;;;3.95;2.60;;;;;;;25.89;35.53;95427.75;5048148;28;20033;-54
2021/12/17 09:31:41;;;;;;;2.90;2.40;;;;;;;25.88;35.36;95434.47;5055473;28;20048;-56
2021/12/17 09:34:06;;;;;;;3.25;2.63;;;;;;;25.84;35.77;95431.31;5057868;28;20032;-55
2021/12/17 09:36:33;;;;;;;3.38;2.45;;;;;;;25.80;35.69;95425.38;5045988;28;20021;-55
2021/12/17 09:38:59;;;;;;;3.80;2.75;;;;;;;25.80;35.82;95433.56;5046259;28;20029;-55
2021/12/17 09:41:26;;;;;;;3.10;2.47;;;;;;;25.82;35.36;95422.84;5046940;28;20036;-55
2021/12/17 09:43:52;;;;;;;3.35;2.17;;;;;;;25.81;35.71;95410.44;5054277;28;20116;-57
2021/12/17 09:46:18;;;;;;;3.28;2.30;;;;;;;25.83;35.77;95412.66;5049888;28;20044;-54
2021/12/17 09:48:45;;;;;;;3.65;2.55;;;;;;;25.85;35.71;95399.19;5064332;28;20029;-56
2021/12/17 09:51:10;;;;;;;3.90;2.63;;;;;;;25.88;35.73;95393.41;5067437;28;20426;-55
2021/12/17 09:53:37;;;;;;;3.58;2.30;;;;;;;25.88;35.60;95382.47;5049709;28;20064;-60
2021/12/17 09:56:04;;;;;;;3.08;2.20;;;;;;;25.84;35.24;95365.63;5048091;28;20093;-57
2021/12/17 09:58:29;;;;;;;3.80;2.33;;;;;;;25.89;35.43;95383.97;5046006;28;20021;-53
2021/12/17 10:00:55;;;;;;;3.40;2.47;;;;;;;25.88;35.11;95387.94;5050032;28;20047;-53
2021/12/17 10:03:21;;;;;;;3.13;2.20;;;;;;;25.93;35.09;95373.47;5050982;28;20043;-53
2021/12/17 10:05:46;;;;;;;2.83;2.10;;;;;;;25.99;35.04;95365.16;5062525;28;20087;-54
2021/12/17 10:08:17;;;;;;;2.83;2.17;;;;;;;26.05;35.34;95369.34;5046546;28;20028;-56
2021/12/17 10:10:44;;;;;;;2.92;2.35;;;;;;;26.07;35.11;95361.34;5060395;28;20640;-54
2021/12/17 10:13:13;;;;;;;2.60;2.00;;;;;;;26.09;35.17;95347.84;5064544;28;20040;-55
2021/12/17 10:15:41;;;;;;;3.10;2.17;;;;;;;26.07;35.11;95344.91;5064345;28;20105;-53
2021/12/17 10:18:07;;;;;;;3.10;2.10;;;;;;;26.06;35.21;95337.94;5061200;28;20056;-56
2021/12/17 10:20:40;;;;;;;3.53;2.03;;;;;;;25.96;35.40;95328.66;5055467;28;20032;-55
2021/12/17 10:23:08;;;;;;;3.10;2.00;;;;;;;26.06;35.25;95327.00;5059183;28;20502;-56
2021/12/17 10:25:35;;;;;;;3.28;2.20;;;;;;;26.08;35.36;95327.22;5046213;28;20028;-54
2021/12/17 10:28:03;;;;;;;3.90;2.05;;;;;;;26.08;35.16;95321.72;5045076;28;20036;-54
2021/12/17 10:30:29;;;;;;;3.78;2.30;;;;;;;26.13;35.18;95326.41;5047565;28;20017;-53
2021/12/17 10:32:56;;;;;;;3.63;2.13;;;;;;;26.13;35.17;95318.19;5045145;28;20116;-53
2021/12/17 10:35:26;;;;;;;3.42;2.13;;;;;;;26.10;34.95;95305.53;5046212;28;20037;-54
2021/12/17 10:38:03;;;;;;;3.25;1.90;;;;;;;26.13;35.02;95299.03;5044166;28;20043;-53
2021/12/17 10:40:35;;;;;;;4.03;2.10;;;;;;;26.14;34.76;95297.75;5053543;28;20029;-56
2021/12/17 10:43:08;;;;;;;2.63;2.03;;;;;;;26.16;34.81;95287.03;5064094;28;20028;-54
2021/12/17 10:45:46;;;;;;;3.10;2.22;;;;;;;26.18;34.88;95279.03;5052287;28;20029;-58
2021/12/17 10:51:31;;;;;;;2.70;2.03;;;;;;;26.16;34.81;95273.34;5020688;28;20048;-55
2021/12/17 10:54:22;;;;;;;2.78;1.98;;;;;;;26.26;34.68;95262.75;5044685;28;20044;-54
2021/12/17 10:56:52;;;;;;;2.15;1.65;;;;;;;26.21;34.66;95282.75;5061455;28;20041;-53
2021/12/17 10:59:18;;;;;;;;;;;;;;;26.33;34.46;95284.81;5067694;28;20065;-55
2021/12/17 11:01:55;;;;;;;3.67;1.98;;;;;;;26.24;34.41;95293.38;5067274;28;20322;-55
2021/12/17 11:04:24;;;;;;;2.22;1.88;;;;;;;26.20;34.82;95290.19;5061213;28;20055;-52
2021/12/17 11:06:53;;;;;;;3.35;1.85;;;;;;;26.24;34.57;95281.69;5049047;28;20127;-55
2021/12/17 11:09:39;;;;;;;3.05;2.05;;;;;;;26.28;34.44;95282.91;5051988;28;20527;-55
2021/12/17 11:12:13;;;;;;;2.60;2.17;;;;;;;26.22;34.61;95284.97;5066966;28;20037;-53
2021/12/17 11:14:42;;;;;;;2.22;1.83;;;;;;;26.23;34.36;95275.47;5067496;28;20484;-52
2021/12/17 11:17:11;;;;;;;2.55;2.17;;;;;;;26.24;34.43;95282.44;5053658;28;20023;-54
2021/12/17 11:19:36;;;;;;;2.88;2.03;;;;;;;26.19;34.50;95279.75;5053287;28;20657;-53
2021/12/17 11:22:03;;;;;;;2.97;2.17;;;;;;;26.17;34.54;95266.59;5067207;28;20024;-57
2021/12/17 11:24:28;;;;;;;3.08;2.03;;;;;;;26.19;34.63;95252.38;5066337;28;20028;-55
2021/12/17 11:26:54;;;;;;;3.05;2.05;;;;;;;26.25;34.40;95245.59;5048996;28;20020;-55
2021/12/17 11:29:20;;;;;;;3.70;2.30;;;;;;;26.24;34.61;95244.09;5066007;28;20099;-54
2021/12/17 11:31:47;;;;;;;3.40;2.80;;;;;;;26.25;34.56;95234.63;5052677;28;20044;-57
2021/12/17 11:34:12;;;;;;;3.40;2.60;;;;;;;26.27;34.30;95238.34;5063936;28;20567;-56
2021/12/17 11:36:38;;;;;;;3.42;2.50;;;;;;;26.24;34.14;95226.94;5055417;28;20036;-56
2021/12/17 11:39:21;;;;;;;3.97;3.13;;;;;;;26.35;34.01;95227.50;5054879;28;20040;-55
2021/12/17 11:42:25;;;;;;;3.90;2.78;;;;;;;26.35;34.42;95230.25;5050620;28;20032;-53
2021/12/17 11:45:22;;;;;;;4.72;2.72;;;;;;;26.25;34.25;95226.41;5066138;28;20039;-53
2021/12/17 11:47:39;;;;;;;4.28;2.88;;;;;;;26.28;34.05;95217.19;5065151;28;20579;-55
2021/12/17 11:50:05;;;;;;;3.90;3.00;;;;;;;26.21;33.94;95212.28;5066429;28;20040;-57
2021/12/17 11:52:44;;;;;;;3.15;2.60;;;;;;;26.29;33.83;95211.19;5044468;28;20422;-55
2021/12/17 11:55:28;;;;;;;3.70;2.90;;;;;;;26.33;33.89;95208.13;5094315;28;20047;-57
2021/12/17 11:57:57;;;;;;;3.42;3.13;;;;;;;26.24;33.67;95205.75;5058457;28;20028;-55
2021/12/17 12:00:41;;;;;;;3.70;2.65;;;;;;;26.38;34.29;95213.53;5055248;28;20017;-57
2021/12/17 12:03:23;;;;;;;4.50;2.97;;;;;;;26.38;34.24;95210.03;5065939;28;20521;-55
2021/12/17 12:05:59;;;;;;;3.30;2.85;;;;;;;26.35;33.93;95203.63;5066119;28;20029;-53
2021/12/17 12:08:39;;;;;;;3.17;2.60;;;;;;;26.34;34.01;95209.63;5063045;28;20017;-55
2021/12/17 12:11:05;;;;;;;3.95;2.55;;;;;;;26.24;34.26;95203.03;5065825;28;20039;-54
2021/12/17 12:13:34;;;;;;;4.90;3.20;;;;;;;26.25;34.34;95201.78;5064170;28;20036;-55
2021/12/17 12:16:03;;;;;;;5.82;3.28;;;;;;;26.25;34.38;95207.25;5066317;28;20043;-54
2021/12/17 12:18:42;;;;;;;3.58;2.63;;;;;;;26.30;34.21;95203.69;5065367;28;20032;-55
2021/12/17 12:21:07;;;;;;;3.30;2.60;;;;;;;26.21;34.27;95184.19;5065904;28;20036;-55
2021/12/17 12:23:33;;;;;;;3.30;2.42;;;;;;;26.22;34.36;95191.88;5065388;28;20800;-57
2021/12/17 12:26:04;;;;;;;4.22;3.22;;;;;;;26.27;34.41;95183.56;5066159;28;20425;-52
2021/12/17 12:28:45;;;;;;;4.00;2.63;;;;;;;26.31;34.19;95188.75;5065144;28;20028;-54
2021/12/17 12:31:14;;;;;;;3.20;2.42;;;;;;;26.24;34.10;95178.38;5065527;28;20032;-56
2021/12/17 12:33:58;;;;;;;5.07;2.90;;;;;;;26.28;34.28;95162.44;5065389;28;20029;-53
2021/12/17 12:36:46;;;;;;;4.10;2.88;;;;;;;26.28;34.28;95162.44;5065611;28;20536;-53
2021/12/17 12:39:25;;;;;;;4.18;2.88;;;;;;;26.26;34.00;95143.00;5065786;28;20047;-55
2021/12/17 12:42:04;;;;;;;3.30;2.67;;;;;;;26.27;34.26;95156.19;5065258;28;20469;-56
2021/12/17 12:44:42;;;;;;;4.38;3.00;;;;;;;26.28;34.21;95156.94;5065607;28;20039;-52
2021/12/17 12:47:19;;;;;;;3.00;2.38;;;;;;;26.27;34.16;95149.97;5064512;28;20025;-54
2021/12/17 12:50:12;;;;;;;2.95;2.47;;;;;;;26.33;34.12;95153.38;5063969;28;20021;-55
2021/12/17 12:52:45;;;;;;;3.30;2.65;;;;;;;26.28;34.10;95141.25;5055377;28;20040;-53
2021/12/17 12:55:17;;;;;;;3.08;2.40;;;;;;;26.25;34.14;95152.50;5065235;28;20037;-56
2021/12/17 12:57:47;;;;;;;3.30;2.60;;;;;;;26.21;34.07;95146.56;5077513;28;20864;-52
2021/12/17 13:00:23;;;;;;;3.95;2.75;;;;;;;26.25;34.29;95152.50;5064842;28;20036;-53
2021/12/17 13:02:53;;;;;;;3.00;2.17;;;;;;;26.25;34.24;95149.75;5064489;28;20437;-56
2021/12/17 13:05:19;;;;;;;3.55;2.35;;;;;;;26.23;34.12;95133.09;5064758;28;20031;-53
2021/12/17 13:07:47;;;;;;;3.70;2.47;;;;;;;26.22;34.07;95137.13;5062850;28;20393;-55
2021/12/17 13:10:36;;;;;;;3.70;2.75;;;;;;;26.33;34.00;95147.88;5064703;28;20028;-54
2021/12/17 13:13:06;;;;;;;3.55;2.85;;;;;;;26.33;33.98;95153.38;5064444;28;20801;-53
2021/12/17 13:24:16;;;;;;;2.90;2.35;;;;;;;26.44;33.88;95153.16;5002000;28;20038;-54
2021/12/17 13:26:51;;;;;;;3.30;2.53;;;;;;;26.39;33.67;95151.25;5001072;28;20056;-55
2021/12/17 13:29:20;;;;;;;3.55;2.70;;;;;;;26.39;33.92;95162.22;5044647;28;20040;-53
2021/12/17 13:32:01;;;;;;;4.10;2.70;;;;;;;26.40;33.75;95158.94;5063392;28;20035;-54
2021/12/17 13:34:26;;;;;;;2.55;2.15;;;;;;;26.31;33.99;95161.38;5064656;28;20021;-57
2021/12/17 13:36:56;;;;;;;3.65;2.70;;;;;;;26.28;33.73;95156.94;5064772;28;20521;-58
2021/12/17 13:39:24;;;;;;;3.88;2.35;;;;;;;26.30;34.06;95160.63;5064258;28;20051;-57
2021/12/17 13:41:49;;;;;;;2.75;2.03;;;;;;;26.29;33.74;95169.34;5063214;28;20039;-54
2021/12/17 13:44:39;;;;;;;3.10;2.30;;;;;;;26.29;33.71;95148.22;5063787;28;20032;-53
2021/12/17 13:47:38;;;;;;;3.22;2.20;;;;;;;26.29;34.08;95159.16;5062551;28;20032;-54
2021/12/17 13:50:12;;;;;;;5.45;2.40;;;;;;;26.30;33.92;95154.41;5037483;28;20044;-55
2021/12/17 13:52:58;;;;;;;7.28;2.78;;;;;;;26.35;33.87;95156.31;5063242;28;20056;-55
2021/12/17 13:55:28;;;;;;;4.05;2.40;;;;;;;26.33;33.96;95158.84;5095385;28;20032;-53
2021/12/17 13:57:54;;;;;;;5.35;2.70;;;;;;;26.30;33.75;95159.88;5061611;28;20032;-56
2021/12/17 14:00:21;;;;;;;4.78;2.70;;;;;;;26.26;34.16;95153.94;5064059;28;20469;-52
2021/12/17 14:02:47;;;;;;;6.00;2.58;;;;;;;26.30;33.92;95143.47;5064469;28;20055;-55
2021/12/17 14:05:24;;;;;;;3.60;2.20;;;;;;;26.16;30.24;95139.22;5064806;28;20967;-54
2021/12/17 14:07:50;;;;;;;3.53;2.30;;;;;;;26.03;32.71;95136.44;5063677;28;20043;-58
2021/12/17 14:10:18;;;;;;;5.38;2.40;;;;;;;26.12;33.58;95144.25;5062313;28;20455;-60
2021/12/17 14:12:44;;;;;;;4.40;2.60;;;;;;;26.16;34.04;95144.69;5062776;28;20128;-56
2021/12/17 14:15:27;;;;;;;3.63;2.30;;;;;;;26.21;33.88;95134.91;5063849;28;20045;-58
2021/12/17 14:18:16;;;;;;;3.95;2.22;;;;;;;26.27;33.80;95149.97;5063852;28;20477;-55
2021/12/17 14:20:45;;;;;;;4.68;2.58;;;;;;;26.24;33.67;95156.47;5057639;28;20116;-56
2021/12/17 14:23:20;;;;;;;4.47;2.33;;;;;;;26.27;33.79;95171.84;5063481;28;20515;-57
2021/12/17 14:25:56;;;;;;;4.75;2.35;;;;;;;26.26;33.93;95170.38;5063751;28;20070;-53
2021/12/17 14:28:30;;;;;;;3.92;2.67;;;;;;;26.22;34.14;95175.44;5063035;28;20814;-60
2021/12/17 14:30:59;;;;;;;3.85;2.42;;;;;;;26.25;33.68;95174.41;5049102;28;20108;-58
2021/12/17 14:33:42;;;;;;;3.67;2.00;;;;;;;26.30;33.81;95176.31;5049613;28;20041;-60
2021/12/17 14:36:11;;;;;;;4.65;2.40;;;;;;;26.24;33.66;95175.66;5052998;28;20774;-59
2021/12/17 14:38:48;;;;;;;3.22;2.08;;;;;;;26.27;33.83;95161.66;5067255;28;20090;-58